createdAt,value
2024-04-30T00:00:16.871Z,6.20
2024-04-30T00:02:43.342Z,6.28
2024-04-30T00:05:09.849Z,6.53
2024-04-30T00:07:38.384Z,6.45
2024-04-30T00:10:05.524Z,6.55
2024-04-30T00:12:32.053Z,6.18
2024-04-30T00:15:02.339Z,5.53
2024-04-30T00:17:29.160Z,5.70
2024-04-30T00:19:56.023Z,6.13
2024-04-30T00:22:22.722Z,6.07
2024-04-30T00:24:49.334Z,5.60
2024-04-30T00:27:15.900Z,5.90
2024-04-30T00:29:42.311Z,5.78
2024-04-30T00:32:08.793Z,5.88
2024-04-30T00:34:35.383Z,5.35
2024-04-30T00:37:01.898Z,5.13
2024-04-30T00:39:28.327Z,5.43
2024-04-30T00:41:54.783Z,5.50
2024-04-30T00:44:21.416Z,5.10
2024-04-30T00:46:47.929Z,5.65
2024-04-30T00:49:14.517Z,5.13
2024-04-30T00:51:41.036Z,5.15
2024-04-30T00:54:07.539Z,5.60
2024-04-30T00:56:34.363Z,5.00
2024-04-30T00:59:00.754Z,5.20
2024-04-30T01:01:27.302Z,5.60
2024-04-30T01:03:53.693Z,5.43
2024-04-30T01:06:20.466Z,5.80
2024-04-30T01:08:46.873Z,5.80
2024-04-30T01:11:13.350Z,5.82
2024-04-30T01:13:39.778Z,6.13
2024-04-30T01:16:06.545Z,6.32
2024-04-30T01:18:33.066Z,6.53
2024-04-30T01:20:59.505Z,7.47
2024-04-30T01:23:25.958Z,7.72
2024-04-30T01:25:52.366Z,6.75
2024-04-30T01:28:18.819Z,6.28
2024-04-30T01:30:45.930Z,6.88
2024-04-30T01:33:13.900Z,6.55
2024-04-30T01:35:40.498Z,7.00
2024-04-30T01:38:07.350Z,6.28
2024-04-30T01:40:33.852Z,6.45
2024-04-30T01:43:00.530Z,6.93
2024-04-30T01:45:27.070Z,7.32
2024-04-30T01:47:53.657Z,7.10
2024-04-30T01:50:20.143Z,7.10
2024-04-30T01:52:46.587Z,7.18
2024-04-30T01:55:13.073Z,7.45
2024-04-30T01:57:39.682Z,6.65
2024-04-30T02:00:06.456Z,7.80
2024-04-30T02:02:33.004Z,6.90
2024-04-30T02:05:02.332Z,6.82
2024-04-30T02:07:31.422Z,6.75
2024-04-30T02:09:58.230Z,7.00
2024-04-30T02:12:24.790Z,7.32
2024-04-30T02:14:51.228Z,7.50
2024-04-30T02:17:19.611Z,7.32
2024-04-30T02:19:46.099Z,7.18
2024-04-30T02:22:12.560Z,6.95
2024-04-30T02:24:38.954Z,7.45
2024-04-30T02:27:05.623Z,6.40
2024-04-30T02:29:32.137Z,7.22
2024-04-30T02:32:17.054Z,7.78
2024-04-30T02:34:43.482Z,7.83
2024-04-30T02:37:10.222Z,7.57
2024-04-30T02:39:37.168Z,7.43
2024-04-30T02:42:03.746Z,7.82
2024-04-30T02:44:30.278Z,8.00
2024-04-30T02:46:56.771Z,7.55
2024-04-30T02:49:23.270Z,8.25
2024-04-30T02:51:49.780Z,8.00
2024-04-30T02:54:16.159Z,8.02
2024-04-30T02:56:42.593Z,8.05
2024-04-30T02:59:09.117Z,7.32
2024-04-30T03:01:35.657Z,8.07
2024-04-30T03:04:02.719Z,8.10
2024-04-30T03:06:29.278Z,7.70
2024-04-30T03:08:55.846Z,8.43
2024-04-30T03:11:22.304Z,8.65
2024-04-30T03:13:48.802Z,7.60
2024-04-30T03:16:15.500Z,8.13
2024-04-30T03:18:42.179Z,8.60
2024-04-30T03:21:11.925Z,8.57
2024-04-30T03:23:38.833Z,7.22
2024-04-30T03:26:05.407Z,7.57
2024-04-30T03:28:31.894Z,7.65
2024-04-30T03:30:59.845Z,7.65
2024-04-30T03:33:26.737Z,7.75
2024-04-30T03:35:53.234Z,7.72
2024-04-30T03:38:19.652Z,8.18
2024-04-30T03:40:46.068Z,7.50
2024-04-30T03:43:12.602Z,7.70
2024-04-30T03:45:40.017Z,7.18
2024-04-30T03:48:07.399Z,8.00
2024-04-30T03:50:33.899Z,7.63
2024-04-30T03:53:00.551Z,7.65
2024-04-30T03:55:26.999Z,7.15
2024-04-30T03:57:53.445Z,7.05
2024-04-30T04:00:19.890Z,7.68
2024-04-30T04:02:46.341Z,7.22
2024-04-30T04:05:12.872Z,7.38
2024-04-30T04:07:39.362Z,7.70
2024-04-30T04:10:06.023Z,7.93
2024-04-30T04:12:51.388Z,7.57
2024-04-30T04:15:17.812Z,7.78
2024-04-30T04:17:44.304Z,7.25
2024-04-30T04:20:10.732Z,7.30
2024-04-30T04:22:37.530Z,7.43
2024-04-30T04:25:04.420Z,8.05
2024-04-30T04:27:30.926Z,7.75
2024-04-30T04:29:57.343Z,7.43
2024-04-30T04:32:26.029Z,7.88
2024-04-30T04:34:52.547Z,7.95
2024-04-30T04:37:19.113Z,8.18
2024-04-30T04:39:45.521Z,7.70
2024-04-30T04:42:12.003Z,7.45
2024-04-30T04:44:38.660Z,7.70
2024-04-30T04:47:05.109Z,7.22
2024-04-30T04:49:31.581Z,7.47
2024-04-30T04:51:58.055Z,8.38
2024-04-30T04:54:24.763Z,7.70
2024-04-30T04:56:51.187Z,7.53
2024-04-30T04:59:17.626Z,7.80
2024-04-30T05:01:44.108Z,7.28
2024-04-30T05:04:10.636Z,7.93
2024-04-30T05:06:40.195Z,7.88
2024-04-30T05:09:07.407Z,7.55
2024-04-30T05:11:33.868Z,7.78
2024-04-30T05:14:00.522Z,8.05
2024-04-30T05:16:27.022Z,7.60
2024-04-30T05:18:53.650Z,7.75
2024-04-30T05:21:20.140Z,7.70
2024-04-30T05:23:46.577Z,8.68
2024-04-30T05:26:13.134Z,8.07
2024-04-30T05:28:39.662Z,8.07
2024-04-30T05:31:06.208Z,8.32
2024-04-30T05:33:32.933Z,7.82
2024-04-30T05:35:59.555Z,7.90
2024-04-30T05:38:26.110Z,7.45
2024-04-30T05:40:52.522Z,7.70
2024-04-30T05:43:19.913Z,8.18
2024-04-30T05:45:46.473Z,7.63
2024-04-30T05:48:12.961Z,8.10
2024-04-30T05:50:39.397Z,7.88
2024-04-30T05:53:07.260Z,7.70
2024-04-30T05:55:33.789Z,7.82
2024-04-30T05:58:00.518Z,8.20
2024-04-30T06:00:27.073Z,7.85
2024-04-30T06:02:53.518Z,8.25
2024-04-30T06:05:20.029Z,8.07
2024-04-30T06:07:46.612Z,7.80
2024-04-30T06:10:13.157Z,7.90
2024-04-30T06:12:39.783Z,8.18
2024-04-30T06:15:06.560Z,7.70
2024-04-30T06:17:33.075Z,7.93
2024-04-30T06:19:59.563Z,8.43
2024-04-30T06:22:26.151Z,8.88
2024-04-30T06:24:52.608Z,8.60
2024-04-30T06:27:19.088Z,7.78
2024-04-30T06:29:45.698Z,8.20
2024-04-30T06:32:12.192Z,8.35
2024-04-30T06:34:41.078Z,8.20
2024-04-30T06:37:09.308Z,7.28
2024-04-30T06:39:35.730Z,8.02
2024-04-30T06:42:02.212Z,8.18
2024-04-30T06:44:28.685Z,7.85
2024-04-30T06:46:55.124Z,7.97
2024-04-30T06:49:24.166Z,8.75
2024-04-30T06:51:52.303Z,8.20
2024-04-30T06:54:18.754Z,7.57
2024-04-30T06:56:45.190Z,7.88
2024-04-30T06:59:11.601Z,7.50
2024-04-30T07:01:38.844Z,8.23
2024-04-30T07:04:05.577Z,7.85
2024-04-30T07:06:32.089Z,8.02
2024-04-30T07:08:58.488Z,7.78
2024-04-30T07:11:26.508Z,8.18
2024-04-30T07:13:52.986Z,7.38
2024-04-30T07:16:19.436Z,7.30
2024-04-30T07:18:46.792Z,7.15
2024-04-30T07:21:13.327Z,8.20
2024-04-30T07:23:39.763Z,7.93
2024-04-30T07:26:06.184Z,7.60
2024-04-30T07:28:33.070Z,7.32
2024-04-30T07:30:59.533Z,7.47
2024-04-30T07:33:26.027Z,7.60
2024-04-30T07:35:52.544Z,7.63
2024-04-30T07:38:18.967Z,7.88
2024-04-30T07:40:45.423Z,7.32
2024-04-30T07:43:12.295Z,7.38
2024-04-30T07:45:38.786Z,7.20
2024-04-30T07:48:05.811Z,7.20
2024-04-30T07:50:32.519Z,7.43
2024-04-30T07:52:59.044Z,8.38
2024-04-30T07:55:25.529Z,7.32
2024-04-30T07:57:52.087Z,8.05
2024-04-30T08:00:18.548Z,7.32
2024-04-30T08:02:46.274Z,7.20
2024-04-30T08:05:12.770Z,6.65
2024-04-30T08:07:39.296Z,6.60
2024-04-30T08:10:06.025Z,7.85
2024-04-30T08:12:32.466Z,6.28
2024-04-30T08:14:58.905Z,5.70
2024-04-30T08:17:25.509Z,6.13
2024-04-30T08:19:52.123Z,5.90
2024-04-30T08:22:19.006Z,6.43
2024-04-30T08:24:45.524Z,5.65
2024-04-30T08:27:11.991Z,6.25
2024-04-30T08:29:41.374Z,6.07
2024-04-30T08:32:08.835Z,5.55
2024-04-30T08:34:35.417Z,5.80
2024-04-30T08:37:01.943Z,5.70
2024-04-30T08:39:28.384Z,5.50
2024-04-30T08:41:56.357Z,5.60
2024-04-30T08:44:23.962Z,5.22
2024-04-30T08:46:51.393Z,4.72
2024-04-30T08:49:27.732Z,3.90
2024-04-30T08:51:59.948Z,4.43
2024-04-30T08:54:26.898Z,4.05
2024-04-30T08:56:53.712Z,4.03
2024-04-30T08:59:20.139Z,4.10
2024-04-30T09:01:52.294Z,4.50
2024-04-30T09:04:19.522Z,3.83
2024-04-30T09:06:45.982Z,4.50
2024-04-30T09:09:15.829Z,3.50
2024-04-30T09:11:45.335Z,3.88
2024-04-30T09:14:12.037Z,3.95
2024-04-30T09:16:45.452Z,3.90
2024-04-30T09:19:21.710Z,3.90
2024-04-30T09:21:48.400Z,4.00
2024-04-30T09:24:14.847Z,3.67
2024-04-30T09:26:49.305Z,3.38
2024-04-30T09:29:15.746Z,3.95
2024-04-30T09:31:42.394Z,4.05
2024-04-30T09:34:09.939Z,3.97
2024-04-30T09:36:37.977Z,3.78
2024-04-30T09:39:04.855Z,4.28
2024-04-30T09:41:32.147Z,3.90
2024-04-30T09:43:59.929Z,3.63
2024-04-30T09:46:27.131Z,3.45
2024-04-30T09:48:54.050Z,3.00
2024-04-30T09:51:21.532Z,3.33
2024-04-30T09:53:49.119Z,3.05
2024-04-30T09:56:17.396Z,2.88
2024-04-30T09:58:43.908Z,3.53
2024-04-30T10:01:12.219Z,3.20
2024-04-30T10:03:40.015Z,2.80
2024-04-30T10:06:07.940Z,2.33
2024-04-30T10:08:34.931Z,2.80
2024-04-30T10:11:06.069Z,2.10
2024-04-30T10:13:33.146Z,2.63
2024-04-30T10:16:00.861Z,2.67
2024-04-30T10:18:27.593Z,2.60
2024-04-30T10:20:54.948Z,2.63
2024-04-30T10:23:33.272Z,2.80
2024-04-30T10:26:04.202Z,3.80
2024-04-30T10:28:30.825Z,2.53
2024-04-30T10:31:07.249Z,2.78
2024-04-30T10:33:33.970Z,3.17
2024-04-30T10:36:00.604Z,2.28
2024-04-30T10:38:27.037Z,2.65
2024-04-30T10:40:54.193Z,2.75
2024-04-30T10:43:24.293Z,2.88
2024-04-30T10:45:51.019Z,3.28
2024-04-30T10:48:17.588Z,2.72
2024-04-30T10:50:44.054Z,2.80
2024-04-30T10:53:13.191Z,3.22
2024-04-30T10:55:39.870Z,3.00
2024-04-30T10:58:12.970Z,2.17
2024-04-30T11:00:43.762Z,3.00
2024-04-30T11:03:13.079Z,3.15
2024-04-30T11:05:40.167Z,2.65
2024-04-30T11:08:06.739Z,2.15
2024-04-30T11:10:37.054Z,2.30
2024-04-30T11:13:09.922Z,2.40
2024-04-30T11:15:36.648Z,2.42
2024-04-30T11:18:03.309Z,2.95
2024-04-30T11:20:30.114Z,2.40
2024-04-30T11:22:56.547Z,2.00
2024-04-30T11:25:23.080Z,2.38
2024-04-30T11:27:49.529Z,2.30
2024-04-30T11:30:16.065Z,2.03
2024-04-30T11:32:42.744Z,2.75
2024-04-30T11:35:09.233Z,2.10
2024-04-30T11:37:36.152Z,1.90
2024-04-30T11:40:03.338Z,2.25
2024-04-30T11:42:34.735Z,2.30
2024-04-30T11:45:06.759Z,2.60
2024-04-30T11:47:33.523Z,2.17
2024-04-30T11:50:00.042Z,2.03
2024-04-30T11:52:26.762Z,1.85
2024-04-30T11:54:53.278Z,2.15
2024-04-30T11:57:19.937Z,2.13
2024-04-30T11:59:47.152Z,2.20
2024-04-30T12:02:13.688Z,2.00
2024-04-30T12:04:40.348Z,2.03
2024-04-30T12:07:07.001Z,1.70
2024-04-30T12:09:33.525Z,1.83
2024-04-30T12:11:59.946Z,2.10
2024-04-30T12:14:26.372Z,1.80
2024-04-30T12:16:52.936Z,1.70
2024-04-30T12:19:19.389Z,1.40
2024-04-30T12:21:45.918Z,1.65
2024-04-30T12:24:12.406Z,1.95
2024-04-30T12:26:39.080Z,2.10
2024-04-30T12:29:05.646Z,2.15
2024-04-30T12:31:32.274Z,1.75
2024-04-30T12:33:58.690Z,1.30
2024-04-30T12:36:25.280Z,1.40
2024-04-30T12:38:51.781Z,1.58
2024-04-30T12:41:18.229Z,1.30
2024-04-30T12:43:44.702Z,1.60
2024-04-30T12:46:11.169Z,1.63
2024-04-30T12:48:38.019Z,1.50
2024-04-30T12:51:04.709Z,1.52
2024-04-30T12:53:31.146Z,1.33
2024-04-30T12:55:57.751Z,1.35
2024-04-30T12:58:24.248Z,1.38
2024-04-30T13:00:54.260Z,1.38
2024-04-30T13:03:21.341Z,1.40
2024-04-30T13:05:48.001Z,1.40
2024-04-30T13:08:14.446Z,2.00
2024-04-30T13:10:41.098Z,1.45
2024-04-30T13:13:08.022Z,1.65
2024-04-30T13:15:35.041Z,1.60
2024-04-30T13:18:01.890Z,1.70
2024-04-30T13:20:28.409Z,1.90
2024-04-30T13:22:55.204Z,1.60
2024-04-30T13:25:21.751Z,2.42
2024-04-30T13:27:48.201Z,1.33
2024-04-30T13:30:14.667Z,1.58
2024-04-30T13:32:43.034Z,1.55
2024-04-30T13:35:09.685Z,1.63
2024-04-30T13:37:36.867Z,1.70
2024-04-30T13:40:03.425Z,2.08
2024-04-30T13:42:29.942Z,1.75
2024-04-30T13:44:56.535Z,2.10
2024-04-30T13:47:23.025Z,1.63
2024-04-30T13:49:49.641Z,1.88
2024-04-30T13:52:16.119Z,1.55
2024-04-30T13:54:42.647Z,1.83
2024-04-30T13:57:09.133Z,1.95
2024-04-30T13:59:35.531Z,1.80
2024-04-30T14:02:02.237Z,1.50
2024-04-30T14:04:28.879Z,2.67
2024-04-30T14:06:56.215Z,1.67
2024-04-30T14:09:22.764Z,1.70
2024-04-30T14:11:49.215Z,1.60
2024-04-30T14:14:15.654Z,1.80
2024-04-30T14:16:42.694Z,1.98
2024-04-30T14:19:09.266Z,1.50
2024-04-30T14:21:35.831Z,1.50
2024-04-30T14:24:02.343Z,2.08
2024-04-30T14:26:28.821Z,2.05
2024-04-30T14:28:55.325Z,1.63
2024-04-30T14:31:23.888Z,2.42
2024-04-30T14:33:51.070Z,2.08
2024-04-30T14:36:36.960Z,1.98
2024-04-30T14:39:07.206Z,2.10
2024-04-30T14:41:34.178Z,2.28
2024-04-30T14:44:00.725Z,2.08
2024-04-30T14:46:27.416Z,2.13
2024-04-30T14:48:54.166Z,1.88
2024-04-30T14:51:20.643Z,1.95
2024-04-30T14:53:47.179Z,1.98
2024-04-30T14:56:16.870Z,1.90
